createdAt,value
2023-01-21T00:01:14.383Z,5.22
2023-01-21T00:03:42.036Z,5.43
2023-01-21T00:06:09.558Z,5.10
2023-01-21T00:08:36.968Z,4.72
2023-01-21T00:11:08.971Z,4.80
2023-01-21T00:13:36.558Z,4.85
2023-01-21T00:16:05.118Z,4.00
2023-01-21T00:18:33.499Z,4.90
2023-01-21T00:21:01.594Z,5.05
2023-01-21T00:23:29.134Z,4.72
2023-01-21T00:26:01.045Z,4.63
2023-01-21T00:28:30.118Z,4.05
2023-01-21T00:30:59.332Z,4.20
2023-01-21T00:33:27.643Z,4.57
2023-01-21T00:36:09.587Z,3.60
2023-01-21T00:38:38.139Z,4.00
2023-01-21T00:41:07.732Z,3.78
2023-01-21T00:43:35.607Z,4.45
2023-01-21T00:46:03.433Z,3.50
2023-01-21T00:48:31.540Z,3.55
2023-01-21T00:51:00.855Z,4.10
2023-01-21T00:53:30.222Z,3.75
2023-01-21T00:56:05.512Z,3.70
2023-01-21T00:58:33.269Z,4.22
2023-01-21T01:01:01.819Z,4.10
2023-01-21T01:03:29.533Z,3.78
2023-01-21T01:06:02.774Z,4.15
2023-01-21T01:08:30.102Z,4.03
2023-01-21T01:10:57.421Z,3.65
2023-01-21T01:13:24.757Z,3.80
2023-01-21T01:15:55.942Z,4.30
2023-01-21T01:18:24.529Z,3.67
2023-01-21T01:20:52.389Z,4.57
2023-01-21T01:23:20.158Z,4.38
2023-01-21T01:26:02.803Z,4.93
2023-01-21T01:28:30.856Z,5.30
2023-01-21T01:30:58.453Z,5.47
2023-01-21T01:33:26.375Z,5.28
2023-01-21T01:35:53.915Z,5.07
2023-01-21T01:38:23.330Z,6.03
2023-01-21T01:40:52.483Z,5.75
2023-01-21T01:43:28.171Z,6.67
2023-01-21T01:45:55.607Z,6.13
2023-01-21T01:48:27.472Z,6.18
2023-01-21T01:50:57.909Z,7.13
2023-01-21T01:53:25.606Z,7.47
2023-01-21T01:55:53.369Z,7.22
2023-01-21T01:58:21.439Z,8.18
2023-01-21T02:00:48.889Z,8.57
2023-01-21T02:03:35.716Z,8.38
2023-01-21T02:06:04.347Z,8.63
2023-01-21T02:08:32.896Z,8.82
2023-01-21T02:11:01.066Z,8.07
2023-01-21T02:13:29.855Z,8.73
2023-01-21T02:16:06.272Z,9.65
2023-01-21T02:18:54.926Z,9.00
2023-01-21T02:21:31.285Z,8.27
2023-01-21T02:24:10.905Z,8.55
2023-01-21T02:27:10.292Z,8.82
2023-01-21T02:30:12.952Z,7.70
2023-01-21T02:33:17.440Z,7.88
2023-01-21T02:36:20.178Z,7.75
2023-01-21T02:39:25.642Z,7.03
2023-01-21T02:42:11.630Z,6.03
2023-01-21T02:45:00.669Z,5.95
2023-01-21T02:47:55.357Z,7.03
2023-01-21T02:50:30.462Z,8.48
2023-01-21T02:52:59.532Z,8.30
2023-01-21T02:55:37.320Z,8.57
2023-01-21T02:58:08.343Z,9.13
2023-01-21T03:01:12.449Z,9.15
2023-01-21T03:03:52.932Z,9.32
2023-01-21T03:06:35.953Z,10.23
2023-01-21T03:09:10.504Z,8.98
2023-01-21T03:11:37.824Z,9.32
2023-01-21T03:14:38.758Z,9.80
2023-01-21T03:17:13.995Z,10.27
2023-01-21T03:19:54.105Z,9.70
2023-01-21T03:22:24.744Z,10.30
2023-01-21T03:24:53.214Z,10.93
2023-01-21T03:27:23.612Z,10.50
2023-01-21T03:29:55.084Z,10.85
2023-01-21T03:32:23.028Z,11.63
2023-01-21T03:34:51.945Z,10.07
2023-01-21T03:37:48.197Z,10.75
2023-01-21T03:40:23.942Z,10.25
2023-01-21T03:42:52.710Z,10.25
2023-01-21T03:45:46.927Z,9.80
2023-01-21T03:48:20.676Z,9.52
2023-01-21T03:50:54.793Z,10.95
2023-01-21T03:53:22.667Z,11.57
2023-01-21T03:55:51.443Z,11.60
2023-01-21T03:58:18.865Z,11.45
2023-01-21T04:00:46.809Z,11.20
2023-01-21T04:03:14.207Z,11.30
2023-01-21T04:05:41.624Z,11.75
2023-01-21T04:08:09.846Z,11.68
2023-01-21T04:10:37.112Z,12.45
2023-01-21T04:13:04.419Z,11.88
2023-01-21T04:15:31.709Z,11.30
2023-01-21T04:17:59.032Z,11.18
2023-01-21T04:20:26.479Z,12.10
2023-01-21T04:22:53.743Z,12.18
2023-01-21T04:25:21.496Z,12.90
2023-01-21T04:27:48.809Z,11.98
2023-01-21T04:30:16.719Z,12.18
2023-01-21T04:32:44.120Z,11.98
2023-01-21T04:35:11.402Z,12.55
2023-01-21T04:37:38.723Z,12.77
2023-01-21T04:40:06.682Z,12.98
2023-01-21T04:42:33.997Z,12.98
2023-01-21T04:45:01.721Z,12.13
2023-01-21T04:47:29.195Z,12.55
2023-01-21T04:49:56.452Z,12.98
2023-01-21T04:52:23.801Z,12.55
2023-01-21T04:54:51.331Z,12.77
2023-01-21T04:57:18.906Z,13.48
2023-01-21T04:59:46.365Z,13.45
2023-01-21T05:02:14.035Z,13.65
2023-01-21T05:04:41.405Z,11.73
2023-01-21T05:07:11.990Z,13.82
2023-01-21T05:09:39.252Z,13.02
2023-01-21T05:12:07.101Z,13.60
2023-01-21T05:14:34.572Z,13.80
2023-01-21T05:17:01.981Z,13.73
2023-01-21T05:19:29.321Z,14.43
2023-01-21T05:21:56.564Z,15.88
2023-01-21T05:24:23.961Z,15.68
2023-01-21T05:26:51.522Z,13.75
2023-01-21T05:29:18.857Z,14.85
2023-01-21T05:31:46.368Z,15.00
2023-01-21T05:34:13.701Z,15.73
2023-01-21T05:36:40.998Z,15.77
2023-01-21T05:39:08.385Z,16.08
2023-01-21T05:41:35.818Z,15.32
2023-01-21T05:44:03.288Z,15.68
2023-01-21T05:46:30.604Z,15.13
2023-01-21T05:48:57.959Z,14.90
2023-01-21T05:51:25.316Z,15.77
2023-01-21T05:53:52.631Z,16.15
2023-01-21T05:56:20.046Z,15.65
2023-01-21T05:58:47.489Z,15.93
2023-01-21T06:01:14.845Z,15.65
2023-01-21T06:03:42.201Z,16.90
2023-01-21T06:06:09.527Z,15.73
2023-01-21T06:08:36.794Z,16.33
2023-01-21T06:11:04.390Z,15.63
2023-01-21T06:13:31.854Z,15.80
2023-01-21T06:15:59.170Z,15.18
2023-01-21T06:18:26.639Z,16.02
2023-01-21T06:20:54.023Z,17.15
2023-01-21T06:23:21.456Z,16.90
2023-01-21T06:25:48.776Z,15.20
2023-01-21T06:28:16.289Z,16.70
2023-01-21T06:30:43.919Z,17.13
2023-01-21T06:33:11.489Z,17.58
2023-01-21T06:35:38.937Z,16.67
2023-01-21T06:38:06.317Z,18.25
2023-01-21T06:40:34.339Z,18.05
2023-01-21T06:43:02.027Z,16.42
2023-01-21T06:45:29.446Z,18.00
2023-01-21T06:47:56.802Z,17.73
2023-01-21T06:50:24.254Z,18.77
2023-01-21T06:52:51.538Z,16.58
2023-01-21T06:55:18.904Z,18.60
2023-01-21T06:57:46.166Z,18.45
2023-01-21T07:00:14.169Z,19.13
2023-01-21T07:02:41.521Z,18.17
2023-01-21T07:05:09.151Z,17.63
2023-01-21T07:07:36.456Z,20.70
2023-01-21T07:10:04.015Z,20.35
2023-01-21T07:12:31.818Z,20.40
2023-01-21T07:14:59.189Z,20.20
2023-01-21T07:17:26.497Z,20.75
2023-01-21T07:19:53.879Z,20.52
2023-01-21T07:22:21.436Z,19.45
2023-01-21T07:24:48.680Z,21.95
2023-01-21T07:27:16.320Z,20.33
2023-01-21T07:29:44.056Z,20.08
2023-01-21T07:32:11.269Z,22.00
2023-01-21T07:34:39.303Z,22.48
2023-01-21T07:37:06.564Z,22.75
2023-01-21T07:39:33.911Z,22.77
2023-01-21T07:42:01.312Z,22.73
2023-01-21T07:44:28.737Z,22.45
2023-01-21T07:46:56.133Z,23.15
2023-01-21T07:49:23.527Z,23.98
2023-01-21T07:51:50.927Z,24.67
2023-01-21T07:54:18.238Z,24.45
2023-01-21T07:56:45.633Z,25.35
2023-01-21T07:59:13.913Z,23.52
2023-01-21T08:01:41.816Z,24.55
2023-01-21T08:04:09.878Z,23.13
2023-01-21T08:06:41.559Z,24.27
2023-01-21T08:09:10.254Z,25.83
2023-01-21T08:11:37.840Z,23.55
2023-01-21T08:14:05.756Z,24.13
2023-01-21T08:16:33.062Z,26.00
2023-01-21T08:19:00.642Z,25.00
2023-01-21T08:21:28.033Z,26.48
2023-01-21T08:23:55.504Z,25.25
2023-01-21T08:26:25.559Z,25.60
2023-01-21T08:28:56.454Z,26.90
2023-01-21T08:31:23.925Z,25.48
2023-01-21T08:33:51.283Z,25.52
2023-01-21T08:36:18.570Z,26.13
2023-01-21T08:38:48.538Z,25.15
2023-01-21T08:41:16.604Z,23.77
2023-01-21T08:43:44.082Z,24.40
2023-01-21T08:46:11.527Z,24.80
2023-01-21T08:48:38.932Z,23.55
2023-01-21T08:51:06.675Z,24.40
2023-01-21T08:53:34.047Z,25.38
2023-01-21T08:56:02.659Z,26.50
2023-01-21T08:58:31.024Z,26.38
2023-01-21T09:00:58.984Z,26.02
2023-01-21T09:03:26.360Z,25.85
2023-01-21T09:05:54.312Z,26.92
2023-01-21T09:08:21.738Z,26.65
2023-01-21T09:11:01.049Z,25.48
2023-01-21T09:13:30.494Z,28.95
2023-01-21T09:16:00.660Z,27.40
2023-01-21T09:18:28.112Z,25.88
2023-01-21T09:21:00.634Z,27.33
2023-01-21T09:23:28.260Z,25.98
2023-01-21T09:26:03.384Z,28.70
2023-01-21T09:28:34.231Z,26.70
2023-01-21T09:31:04.321Z,26.92
2023-01-21T09:33:33.182Z,27.58
2023-01-21T09:36:03.213Z,26.42
2023-01-21T09:38:31.229Z,26.42
2023-01-21T09:41:31.006Z,26.70
2023-01-21T09:44:03.039Z,26.45
2023-01-21T09:46:58.837Z,25.35
2023-01-21T09:49:34.459Z,26.42
2023-01-21T09:52:13.867Z,26.52
2023-01-21T09:54:41.136Z,26.10
2023-01-21T09:57:27.154Z,25.83
2023-01-21T10:00:16.389Z,26.20
2023-01-21T10:03:08.989Z,25.77
2023-01-21T10:05:46.109Z,26.98
2023-01-21T10:08:24.585Z,27.20
2023-01-21T10:10:54.580Z,27.17
2023-01-21T10:13:45.329Z,26.40
2023-01-21T10:16:35.731Z,26.65
2023-01-21T10:19:04.804Z,25.75
2023-01-21T10:21:47.059Z,28.07
2023-01-21T10:24:51.538Z,26.60
2023-01-21T10:27:20.875Z,25.67
2023-01-21T10:29:50.631Z,26.08
2023-01-21T10:32:22.365Z,26.70
2023-01-21T10:34:56.261Z,27.02
2023-01-21T10:37:48.538Z,24.95
2023-01-21T10:40:45.177Z,25.17
2023-01-21T10:43:33.371Z,25.63
2023-01-21T10:46:28.124Z,24.92
2023-01-21T10:49:16.622Z,24.63
2023-01-21T10:52:05.435Z,24.58
2023-01-21T10:54:53.355Z,24.27
2023-01-21T10:57:34.765Z,22.13
2023-01-21T11:00:05.501Z,22.70
2023-01-21T11:02:34.035Z,23.38
2023-01-21T11:05:02.873Z,22.02
2023-01-21T11:10:04.048Z,21.08
2023-01-21T11:12:32.992Z,20.67
2023-01-21T11:15:13.045Z,21.23
2023-01-21T11:17:41.973Z,22.42
2023-01-21T11:20:23.864Z,21.83
2023-01-21T11:22:51.667Z,21.73
2023-01-21T11:25:28.230Z,21.27
2023-01-21T11:27:55.695Z,24.48
2023-01-21T11:30:49.066Z,23.77
2023-01-21T11:33:27.429Z,21.48
2023-01-21T11:35:55.427Z,21.55
2023-01-21T11:38:32.011Z,21.88
2023-01-21T11:41:11.628Z,22.20
2023-01-21T11:43:50.865Z,22.10
2023-01-21T11:46:30.959Z,22.83
2023-01-21T11:51:35.195Z,20.25
2023-01-21T11:54:29.237Z,20.42
2023-01-21T11:57:01.797Z,20.90
2023-01-21T11:59:39.000Z,20.15
2023-01-21T12:02:13.885Z,18.83
2023-01-21T12:05:15.609Z,19.15
2023-01-21T12:07:43.189Z,18.75
2023-01-21T12:10:13.560Z,19.45
2023-01-21T12:13:20.540Z,19.00
2023-01-21T12:16:03.707Z,19.88
2023-01-21T12:18:59.195Z,19.52
2023-01-21T12:21:26.482Z,19.20
2023-01-21T12:24:18.368Z,19.55
2023-01-21T12:26:47.276Z,18.67
2023-01-21T12:29:19.465Z,19.60
2023-01-21T12:31:55.292Z,17.02
2023-01-21T12:34:31.767Z,18.00
2023-01-21T12:37:09.808Z,18.15
2023-01-21T12:39:37.739Z,19.27
2023-01-21T12:42:29.402Z,18.73
2023-01-21T12:45:11.653Z,19.17
2023-01-21T12:47:48.543Z,18.50
2023-01-21T12:50:39.557Z,19.40
2023-01-21T12:53:16.319Z,20.20
2023-01-21T12:56:07.520Z,18.55
2023-01-21T12:59:02.923Z,20.42
2023-01-21T13:02:05.709Z,19.25
2023-01-21T13:05:00.913Z,20.55
2023-01-21T13:07:43.605Z,19.95
2023-01-21T13:10:33.926Z,19.05
2023-01-21T13:13:34.430Z,18.27
2023-01-21T13:16:07.497Z,20.58
2023-01-21T13:18:43.925Z,19.80
2023-01-21T13:21:29.847Z,19.85
2023-01-21T13:24:05.612Z,21.40
2023-01-21T13:26:42.546Z,19.25
2023-01-21T13:29:26.661Z,18.55
2023-01-21T13:32:21.250Z,19.58
2023-01-21T13:35:19.931Z,22.10
2023-01-21T13:37:53.217Z,19.65
2023-01-21T13:40:29.292Z,20.77
2023-01-21T13:43:18.482Z,21.67
2023-01-21T13:45:57.917Z,22.05
2023-01-21T13:48:49.482Z,21.55
2023-01-21T13:51:29.297Z,20.50
2023-01-21T13:54:11.477Z,20.35
2023-01-21T13:56:48.783Z,20.60
2023-01-21T13:59:25.412Z,21.60
2023-01-21T14:02:18.784Z,21.85
2023-01-21T14:04:46.103Z,20.27
2023-01-21T14:07:18.475Z,21.35
2023-01-21T14:09:51.493Z,20.10
2023-01-21T14:12:47.616Z,19.67
2023-01-21T14:15:31.186Z,21.20
2023-01-21T14:18:07.697Z,18.02
2023-01-21T14:20:45.441Z,19.80
2023-01-21T14:23:32.419Z,21.15
2023-01-21T14:26:18.370Z,19.40
2023-01-21T14:29:06.550Z,20.25
2023-01-21T14:31:38.486Z,24.60
2023-01-21T14:34:23.274Z,19.35
2023-01-21T14:37:05.619Z,18.08
2023-01-21T14:39:53.238Z,19.55
2023-01-21T14:42:40.316Z,20.00
2023-01-21T14:45:08.354Z,19.75
2023-01-21T14:47:35.576Z,19.23
2023-01-21T14:50:03.128Z,19.35
2023-01-21T14:52:32.337Z,19.13
2023-01-21T14:55:00.346Z,17.80
2023-01-21T14:57:37.175Z,16.60
2023-01-21T15:00:19.649Z,16.77
2023-01-21T15:02:48.395Z,16.45
2023-01-21T15:05:27.768Z,24.42
2023-01-21T15:08:22.131Z,16.05
2023-01-21T15:11:02.401Z,15.75
2023-01-21T15:13:34.027Z,15.73
2023-01-21T15:16:39.958Z,16.65
2023-01-21T15:19:11.202Z,17.63
2023-01-21T15:21:41.365Z,19.13
2023-01-21T15:24:32.343Z,18.67
2023-01-21T15:27:21.797Z,17.70
2023-01-21T15:30:00.616Z,18.85
2023-01-21T15:32:31.230Z,16.10
2023-01-21T15:35:27.849Z,16.48
2023-01-21T15:38:17.483Z,17.17
2023-01-21T15:40:48.557Z,15.80
2023-01-21T15:43:34.740Z,15.90
2023-01-21T15:46:24.046Z,19.33
2023-01-21T15:49:00.227Z,16.30
2023-01-21T15:51:42.688Z,16.23
2023-01-21T15:54:18.703Z,16.80
2023-01-21T15:56:53.130Z,15.68
2023-01-21T15:59:30.533Z,18.02
2023-01-21T16:02:14.486Z,18.15
2023-01-21T16:05:24.293Z,17.42
2023-01-21T16:08:29.276Z,16.63
2023-01-21T16:11:17.707Z,16.98
2023-01-21T16:14:15.581Z,15.82
2023-01-21T16:16:48.801Z,16.85
2023-01-21T16:19:20.542Z,16.17
2023-01-21T16:21:51.150Z,24.02
2023-01-21T16:24:24.745Z,15.40
2023-01-21T16:26:52.122Z,14.77
2023-01-21T16:29:19.584Z,15.77
2023-01-21T16:31:47.682Z,14.80
2023-01-21T16:34:31.516Z,15.77
2023-01-21T16:36:58.754Z,14.77
2023-01-21T16:39:26.059Z,15.10
2023-01-21T16:42:01.878Z,15.25
2023-01-21T16:44:29.585Z,16.08
2023-01-21T16:46:56.966Z,16.67
2023-01-21T16:49:25.687Z,15.95
2023-01-21T16:51:57.414Z,16.20
2023-01-21T16:54:32.352Z,17.23
2023-01-21T16:57:01.960Z,17.58
2023-01-21T16:59:44.632Z,17.98
2023-01-21T17:02:19.264Z,18.70
2023-01-21T17:04:46.917Z,15.88
2023-01-21T17:07:20.761Z,16.48
2023-01-21T17:09:54.312Z,17.77
2023-01-21T17:12:26.185Z,16.10
2023-01-21T17:15:01.075Z,17.00
2023-01-21T17:17:31.621Z,16.45
2023-01-21T17:19:59.358Z,16.35
2023-01-21T17:22:29.180Z,17.25
2023-01-21T17:25:08.533Z,17.08
2023-01-21T17:27:38.533Z,18.80
2023-01-21T17:30:32.573Z,18.33
2023-01-21T17:33:02.101Z,19.20
2023-01-21T17:35:32.029Z,18.98
2023-01-21T17:40:31.508Z,19.77
2023-01-21T17:43:01.256Z,20.15
2023-01-21T17:45:33.295Z,19.52
2023-01-21T17:48:14.101Z,20.85
2023-01-21T17:50:46.553Z,20.23
2023-01-21T17:53:21.103Z,21.52
2023-01-21T17:56:02.976Z,22.30
2023-01-21T17:58:50.413Z,18.95
2023-01-21T18:01:19.644Z,24.52
2023-01-21T18:03:46.983Z,25.55
2023-01-21T18:06:20.351Z,22.67
2023-01-21T18:08:47.776Z,23.27
2023-01-21T18:11:17.381Z,24.35
2023-01-21T18:13:44.669Z,23.98
2023-01-21T18:16:12.155Z,24.13
2023-01-21T18:18:39.608Z,24.35
2023-01-21T18:21:09.539Z,25.35
2023-01-21T18:23:36.857Z,24.75
2023-01-21T18:26:04.790Z,24.67
2023-01-21T18:28:33.225Z,27.00
2023-01-21T18:31:01.872Z,26.38
2023-01-21T18:33:30.969Z,26.30
2023-01-21T18:35:58.285Z,26.47
2023-01-21T18:38:30.571Z,27.05
2023-01-21T18:40:58.987Z,25.63
2023-01-21T18:43:26.353Z,25.90
2023-01-21T18:45:54.581Z,27.33
2023-01-21T18:48:28.310Z,30.25
2023-01-21T18:50:55.727Z,28.38
2023-01-21T18:53:23.082Z,30.00
2023-01-21T18:55:53.911Z,29.70
2023-01-21T18:58:21.590Z,28.90
2023-01-21T19:00:50.695Z,30.08
2023-01-21T19:03:18.370Z,29.65
2023-01-21T19:05:47.664Z,28.67
2023-01-21T19:08:18.303Z,30.08
2023-01-21T19:10:45.782Z,30.23
2023-01-21T19:13:14.619Z,31.70
2023-01-21T19:15:42.068Z,36.45
2023-01-21T19:18:13.898Z,30.30
2023-01-21T19:20:42.240Z,30.92
2023-01-21T19:23:18.701Z,30.25
2023-01-21T19:25:50.903Z,30.58
2023-01-21T19:28:19.147Z,31.60
2023-01-21T19:30:49.461Z,31.63
2023-01-21T19:33:16.922Z,32.55
2023-01-21T19:35:45.342Z,30.95
2023-01-21T19:38:17.053Z,33.17
2023-01-21T19:40:46.732Z,31.92
2023-01-21T19:43:15.846Z,35.65
2023-01-21T19:45:43.867Z,34.17
2023-01-21T19:48:12.968Z,33.03
2023-01-21T19:50:40.666Z,33.70
2023-01-21T19:53:10.215Z,34.55
2023-01-21T19:55:39.215Z,34.42
2023-01-21T19:58:19.549Z,33.88
2023-01-21T20:00:49.256Z,32.80
2023-01-21T20:03:18.154Z,34.35
2023-01-21T20:05:46.055Z,33.88
2023-01-21T20:08:15.682Z,34.95
2023-01-21T20:10:43.891Z,34.70
2023-01-21T20:13:13.015Z,33.85
2023-01-21T20:15:41.987Z,33.63
2023-01-21T20:18:17.900Z,34.55
2023-01-21T20:20:45.357Z,35.53
2023-01-21T20:23:15.541Z,34.50
2023-01-21T20:25:44.211Z,36.72
2023-01-21T20:28:23.290Z,32.92
2023-01-21T20:30:52.446Z,35.17
2023-01-21T20:33:22.096Z,35.35
2023-01-21T20:35:58.377Z,35.38
2023-01-21T20:38:30.724Z,35.65
2023-01-21T20:40:58.777Z,36.17
2023-01-21T20:43:27.391Z,35.53
2023-01-21T20:45:55.807Z,34.10
2023-01-21T20:48:26.265Z,35.03
2023-01-21T20:50:54.339Z,35.05
2023-01-21T20:53:21.776Z,34.08
2023-01-21T20:55:50.631Z,35.53
2023-01-21T20:58:19.177Z,34.87
2023-01-21T21:00:47.046Z,35.70
2023-01-21T21:03:17.985Z,33.83
2023-01-21T21:05:46.551Z,33.83
2023-01-21T21:08:16.177Z,35.85
2023-01-21T21:10:43.821Z,35.58
2023-01-21T21:13:12.195Z,35.30
2023-01-21T21:15:40.151Z,34.92
2023-01-21T21:18:07.500Z,37.10
2023-01-21T21:20:38.672Z,35.17
2023-01-21T21:23:07.484Z,36.13
2023-01-21T21:25:40.115Z,33.53
2023-01-21T21:28:07.464Z,33.78
2023-01-21T21:30:34.829Z,32.15
2023-01-21T21:33:02.314Z,32.97
2023-01-21T21:35:33.468Z,34.05
2023-01-21T21:38:09.830Z,34.65
2023-01-21T21:40:37.223Z,33.83
2023-01-21T21:43:23.305Z,34.50
2023-01-21T21:46:16.987Z,34.17
2023-01-21T21:48:46.166Z,34.63
2023-01-21T21:51:17.618Z,31.07
2023-01-21T21:53:46.072Z,31.63
2023-01-21T21:56:15.810Z,32.35
2023-01-21T21:58:43.385Z,32.90
2023-01-21T22:01:13.693Z,31.65
2023-01-21T22:03:41.284Z,31.42
2023-01-21T22:06:09.823Z,32.35
2023-01-21T22:08:38.781Z,32.20
2023-01-21T22:11:08.914Z,33.93
2023-01-21T22:13:40.344Z,34.63
2023-01-21T22:16:09.838Z,33.92
2023-01-21T22:18:37.240Z,31.58
2023-01-21T22:21:14.321Z,31.58
2023-01-21T22:23:42.084Z,31.63
2023-01-21T22:26:14.652Z,31.08
2023-01-21T22:28:43.126Z,29.63
2023-01-21T22:31:16.046Z,29.52
2023-01-21T22:33:43.716Z,28.55
2023-01-21T22:36:13.618Z,27.05
2023-01-21T22:38:41.334Z,29.15
2023-01-21T22:41:09.843Z,28.77
2023-01-21T22:43:39.228Z,29.75
2023-01-21T22:46:06.787Z,29.55
2023-01-21T22:48:34.137Z,27.70
2023-01-21T22:51:01.748Z,25.98
2023-01-21T22:53:29.673Z,24.50
2023-01-21T22:55:58.888Z,25.00
2023-01-21T22:58:27.750Z,25.85
2023-01-21T23:00:55.484Z,25.35
2023-01-21T23:03:23.452Z,23.98
2023-01-21T23:05:51.435Z,25.50
2023-01-21T23:08:19.614Z,22.98
2023-01-21T23:10:47.517Z,23.23
2023-01-21T23:13:16.066Z,24.40
2023-01-21T23:15:44.573Z,23.63
2023-01-21T23:18:13.728Z,20.98
2023-01-21T23:20:43.274Z,22.13
2023-01-21T23:23:11.706Z,22.17
2023-01-21T23:25:46.254Z,24.10
2023-01-21T23:28:14.906Z,20.73
2023-01-21T23:30:42.739Z,21.55
2023-01-21T23:33:11.495Z,22.67
2023-01-21T23:35:38.820Z,22.15
2023-01-21T23:38:06.078Z,21.20
2023-01-21T23:40:34.407Z,21.83
2023-01-21T23:43:01.640Z,21.60
2023-01-21T23:45:28.917Z,22.85
2023-01-21T23:47:56.167Z,21.45
2023-01-21T23:50:23.552Z,22.88
2023-01-21T23:52:50.819Z,22.38
2023-01-21T23:55:18.282Z,20.85
2023-01-21T23:57:45.486Z,22.52
